Terminal Aerodrome Forecast
Issued by NWS Melbourne, FL

Home | Current Version | Previous Version | Text Only | Print | Product List | Glossary On
Versions: 1 2 3 4 5 6 7 8 9 10 11 12 13 14 15 16 17
217
FTUS42 KMLB 230540
TAFDAB
TAF
KDAB 230540Z 2306/2406 05012KT P6SM -RA SCT012 OVC050
      TEMPO 2306/2310 3SM SHRA BKN012 OVC020
     FM231000 04011KT P6SM VCSH SCT008 BKN015
      TEMPO 2310/2314 3SM -SHRA BKN008
     FM231400 04013KT P6SM VCSH BKN020 OVC035
      TEMPO 2314/2318 3SM SHRA BKN012
     FM231900 03015G25KT P6SM SCT015 BKN040=

USA.gov is the U.S. government's official web portal to all federal, state and local government web resources and services.